TAF PHOG
PHOG 270533Z 2706/2806 05007KT P6SM FEW050 FM272000 03013KT P6SM FEW035 SCT050 FM280500 05007KT P6SM FEW050=
METAR PHOG
WC PHOG
WS PHOG
WV PHOG